Thurmont, MD (21788)

5:34 PM EDT on August 30, 2014 (GMT -0400)
Bought The Farm | Change Station
CLOSE
Current Station
Personal Weather Station
Location: Thurmont, MD
Elevation: 453 ft
Nearby Weather Stations

Elev 453 ft 39.61 °N, 77.38 °W | Updated 4 minutes ago

Overcast
Overcast
78.7 °F
Feels Like 82 °F
N
2.0
Wind Variable Wind from SE
Gusts 5.0 mph

Today
High -- | Low -- °F
--% Chance of Precip.
Yesterday
High -- | Low -- °F
Precip. -- in
6:36 AM 7:43 PM
Waxing Crescent, 25% visible
Pressure 30.16 in
Visibility 10.0 miles
Clouds Mostly Cloudy 3100 ft
Heat Index 82 °F
Dew Point 72 °F
Humidity 81%
Rainfall 0.00 in
Snow Depth Not available.
UV 2 out of 12
Pollen 9.30 out of 12
Air Quality Not available.
Flu Activity Not available.
METAR KFDK 302050Z 18006KT 10SM BKN031 28/22 A3016

More Conditions Fewer Conditions

Pressure 30.16 in
Visibility 10.0 miles
Clouds Mostly Cloudy 3100 ft
Heat Index 82 °F
Dew Point 72 °F
Humidity 81%
Rainfall 0.00 in
Snow Depth Not available.
UV 2 out of 12
Pollen 9.30 out of 12
Air Quality Not available.
Flu Activity Not available.
METAR KFDK 302050Z 18006KT 10SM BKN031 28/22 A3016

More Conditions Fewer Conditions

10-Day Weather Forecast

Almanac

Astronomy

Aug. 30, 2014 Rise Set
Actual Time 6:36 AM EDT 7:43 PM EDT
Civil Twilight 6:08 AM EDT 8:11 PM EDT
Nautical Twilight 5:35 AM EDT 8:44 PM EDT
Astronomical Twilight 5:00 AM EDT 9:18 PM EDT
Moon 11:20 AM EDT 10:18 PM EDT
Length of Visible Light 14h 03m
Length of Day
13h 07m
Tomorrow will be 2m 29s shorter.
Waxing Crescent, 25% of the Moon is Illuminated
Today
Waxing Crescent
Sep 2
First Quarter
Sep 8
Full
Sep 15
Last Quarter
Sep 24
New

Today's Extremes

State Highs State Lows

Community

WunderPhotos

Upload Photos

1,748,647 photos uploaded!

WunderBlogs® & News

Nearby

Snow Depth

Station Depth Elevation
No new snow has been reported.

Earthquake Activity

City Distance Mag. Time & Date
No recent earthquake activity has been reported nearby.
Minimum magnitude displayed is 2.5.

Coastal Water Temperatures

Place Temperature
No Stations Reporting

Nearby Weather Stations